Nearby METAR Reports

 

KTAN - Taunton, Massachusetts, USA
Distance from station: W 5mi, 8km
Updated: 03/22/2019 5:52am
Light rain, Mist, Overcast
Light rain, Mist, Overcast
 Wind from ENE
Wind: ENE 9 mph , 15 km/h, Gust: 22 mph , 35 km/h
Temperature: 43°F , 6°C
Wind Chill: 38°F , 3°C
Dew Point: 39°F , 4°C
Humidity: 87%
Barometer: 29.39 inHg , 995.3 hPa
Summary: Light rain, Mist
Clouds: Overcast
Visibility: 5 miles , 8 km
Cloud details: Overcast 900 ft
2019/03/22 09:52 KTAN 220952Z AUTO 07008G19KT 5SM -RA BR OVC009 06/04 A2939 RMK AO2 CIG 006V012 SLP952 P0004 T00560039
KPYM - Plymouth, Massachusetts, USA
Distance from station: ENE 10mi, 16km
Updated: 03/22/2019 5:52am
Rain, Mist, Overcast
Rain, Mist, Overcast
 Wind from NE
Wind: NE 17 mph , 28 km/h, Gust: 28 mph , 44 km/h
Temperature: 39°F , 4°C
Wind Chill: 30°F , -1°C
Dew Point: 37°F , 3°C
Humidity: 93%
Barometer: 29.41 inHg , 995.9 hPa
Summary: Rain, Mist
Clouds: Overcast
Visibility: 3 miles , 5 km
Cloud details: Mostly cloudy 400 ft
Overcast 2700 ft
2019/03/22 09:52 KPYM 220952Z AUTO 05015G24KT 3SM RA BR BKN004 OVC027 04/03 A2941 RMK AO2 PK WND 05027/0937 SLP960 P0034 T00440033
 
KEWB - New Bedford, Massachusetts, USA
Distance from station: S 14mi, 23km
Updated: 03/22/2019 5:53am
Light rain, Overcast
Light rain, Overcast
 Wind from NE
Wind: NE 14 mph , 22 km/h, Gust: 26 mph , 43 km/h
Temperature: 43°F , 6°C
Wind Chill: 36°F , 2°C
Dew Point: 43°F , 6°C
Humidity: 100%
Barometer: 29.36 inHg , 994.2 hPa
Summary: Light rain
Clouds: Overcast
Visibility: 9 miles , 14 km
Cloud details: Overcast 700 ft
2019/03/22 09:53 KEWB 220953Z AUTO 04012G23KT 9SM -RA OVC007 06/06 A2936 RMK AO2 PK WND 06026/0931 SLP941 P0001 T00560056
KGHG - Marshfield, Massachusetts, USA
Distance from station: NE 20mi, 31km
Updated: 03/22/2019 5:55am
Heavy rain, Overcast
Heavy rain, Overcast
 Wind from NE
Wind: NE 10 mph , 17 km/h
Temperature: 41°F , 5°C
Wind Chill: 35°F , 2°C
Dew Point: 41°F , 5°C
Humidity: 100%
Barometer: 29.46 inHg , 997.6 hPa
Summary: Heavy rain
Clouds: Overcast
Visibility: 2 1/2 miles , 4 km
Cloud details: Partly cloudy 200 ft
Overcast 700 ft
2019/03/22 09:55 KGHG 220955Z AUTO 04009KT 350V070 2 1/2SM +RA SCT002 OVC007 05/05 A2946 RMK AO2 P0031
 
KOWD - Norwood, Massachusetts, USA
Distance from station: NNW 24mi, 39km
Updated: 03/22/2019 5:53am
Light rain, Overcast
Light rain, Overcast
 Wind from NE
Wind: NE 13 mph , 20 km/h, Gust: 24 mph , 39 km/h
Temperature: 43°F , 6°C
Wind Chill: 36°F , 2°C
Dew Point: 37°F , 3°C
Humidity: 81%
Barometer: 29.44 inHg , 997 hPa
Summary: Light rain
Clouds: Overcast
Visibility: 9 miles , 14 km
Cloud details: Overcast 600 ft
2019/03/22 09:53 KOWD 220953Z AUTO 04011G21KT 9SM -RA OVC006 06/03 A2944 RMK AO2 PK WND 03027/0906 PRESFR SLP967 P0013 T00560033
KMQE - East Milton, Massachusetts, USA
Distance from station: NNW 25mi, 40km
Updated: 03/22/2019 5:56am

 Wind from NE
Wind: NE 26 mph , 43 km/h, Gust: 41 mph , 67 km/h
Temperature: 37°F , 3°C
Wind Chill: 25°F , -4°C
Dew Point: 37°F , 3°C
Humidity: 100%
Barometer: 29.38 inHg , 994.9 hPa
2019/03/22 09:56 KMQE 220956Z AUTO 05023G36KT 03/03 A2938 RMK AO1 PK WND 05036/0954 PRESFR SLP964 P0014 T00280028
 
KFMH - Falmouth/Otis Ab, Massachusetts, USA
Distance from station: SE 27mi, 44km
Updated: 03/22/2019 5:55am
Rain, Overcast
Rain, Overcast
 Wind from NNE
Wind: NNE 21 mph , 33 km/h, Gust: 29 mph , 46 km/h
Temperature: 39°F , 4°C
Wind Chill: 29°F , -2°C
Dew Point: 39°F , 4°C
Humidity: 100%
Barometer: 29.37 inHg , 994.6 hPa
Summary: Rain
Clouds: Overcast
Visibility: 2 miles , 3 km
Cloud details: Overcast 500 ft
2019/03/22 09:55 KFMH 220955Z 03018G25KT 2SM RA OVC005 04/04 A2937 RMK AO2 FZRANO
KPVD - Providence/Green, Rhode Island, USA
Distance from station: WSW 29mi, 47km
Updated: 03/22/2019 5:36am
Rain, Mist, Overcast
Rain, Mist, Overcast
 
Temperature: 41°F , 5°C
Dew Point: 39°F , 4°C
Humidity: 93%
Barometer: 29.40 inHg , 995.6 hPa
Summary: Rain, Mist
Clouds: Overcast
Visibility: 3 miles , 5 km
Cloud details: Overcast 1000 ft
2019/03/22 09:36 KPVD 220936Z 3SM RA BR OVC010 05/04 A2940 RMK AO2 PRESFR P0010 T00500044
 
KSFZ - Pawtucket, Rhode Island, USA
Distance from station: W 30mi, 48km
Updated: 03/22/2019 5:56am
Light rain, Mist, Overcast
Light rain, Mist, Overcast
 Wind from NE
Wind: NE 15 mph , 24 km/h
Temperature: 39°F , 4°C
Wind Chill: 31°F , -1°C
Dew Point: 37°F , 3°C
Humidity: 93%
Barometer: 29.39 inHg , 995.3 hPa
Summary: Light rain, Mist
Clouds: Overcast
Visibility: 5 miles , 8 km
Cloud details: Overcast 500 ft
2019/03/22 09:56 KSFZ 220956Z AUTO 04013KT 5SM -RA BR OVC005 04/03 A2939 RMK AO2 CIG 004V009 SLP902 P0003 T00390033
KUUU - Newport, Rhode Island, USA
Distance from station: SW 31mi, 50km
Updated: 03/22/2019 5:53am
Light rain, Overcast
Light rain, Overcast
 Wind from NNE
Wind: NNE 14 mph , 22 km/h
Temperature: 43°F , 6°C
Wind Chill: 36°F , 2°C
Dew Point: 41°F , 5°C
Humidity: 93%
Barometer: 29.35 inHg , 993.9 hPa
Summary: Light rain
Clouds: Overcast
Visibility: 10 miles , 16 km
Cloud details: Overcast 700 ft
2019/03/22 09:53 KUUU 220953Z AUTO 03012KT 10SM -RA OVC007 06/05 A2935 RMK AO2 PK WND 05028/0905 SLP937 P0000 T00560050
 
KOQU - N. Kingston/Quon, Rhode Island, USA
Distance from station: SW 32mi, 52km
Updated: 03/21/2019 10:50pm
NOT Current
Light rain, Overcast
Light rain, Overcast
 Wind from E
Wind: E 17 mph , 28 km/h
Temperature: 43°F , 6°C
Wind Chill: 35°F , 2°C
Dew Point: 39°F , 4°C
Humidity: 87%
Barometer: 29.82 inHg , 1009.8 hPa
Summary: Light rain
Clouds: Overcast
Visibility: 10 miles , 16 km
Cloud details: Few Clouds 800 ft
Partly cloudy 1700 ft
Overcast 6000 ft
2019/03/22 02:50 KOQU 220250Z 10015KT 10SM -RA FEW008 SCT017 OVC060 06/04 A2982 RMK LAST
KBOS - Boston, Massachusetts, USA
Distance from station: N 33mi, 54km
Updated: 03/22/2019 5:36am
Rain, Mist, Overcast
Rain, Mist, Overcast
 Wind from NE
Wind: NE 24 mph , 39 km/h, Gust: 37 mph , 59 km/h
Temperature: 41°F , 5°C
Wind Chill: 31°F , -1°C
Dew Point: 37°F , 3°C
Humidity: 87%
Barometer: 29.48 inHg , 998.3 hPa
Summary: Rain, Mist
Clouds: Overcast
Visibility: 3 miles , 5 km
Cloud details: Mostly cloudy 500 ft
Overcast 2600 ft
2019/03/22 09:36 KBOS 220936Z 04021G32KT 3SM RA BR BKN005 OVC026 05/03 A2948 RMK AO2 PK WND 04032/0932 P0018 T00500033
 
KHYA - Hyannis, Massachusetts, USA
Distance from station: ESE 37mi, 59km
Updated: 03/22/2019 5:56am
Rain, Mist, Overcast
Rain, Mist, Overcast
 Wind from NNE
Wind: NNE 15 mph , 24 km/h, Gust: 25 mph , 41 km/h
Temperature: 43°F , 6°C
Wind Chill: 36°F , 2°C
Dew Point: 39°F , 4°C
Humidity: 87%
Barometer: 29.34 inHg , 993.6 hPa
Summary: Rain, Mist
Clouds: Overcast
Visibility: 2 miles , 3 km
Cloud details: Overcast 500 ft
2019/03/22 09:56 KHYA 220956Z 03013G22KT 2SM RA BR OVC005 06/04 A2934 RMK AO2 CIG 005V009 SLP935 P0023 T00560039
KMVY - Marthas Vineyard, Massachusetts, USA
Distance from station: SSE 37mi, 60km
Updated: 03/22/2019 5:53am
Light rain, Overcast
Light rain, Overcast
 Wind from NE
Wind: NE 22 mph , 35 km/h, Gust: 29 mph , 46 km/h
Barometer: 29.34 inHg , 993.6 hPa
Summary: Light rain
Clouds: Overcast
Visibility: 6 miles , 10 km
Cloud details: Mostly cloudy 600 ft
Overcast 1500 ft
2019/03/22 09:53 KMVY 220953Z AUTO 04019G25KT 6SM -RA BKN006 OVC015 A2934 RMK AO2 PRESFR SLPNO P0016
 
KPVC - Provincetown, Massachusetts, USA
Distance from station: ENE 38mi, 61km
Updated: 03/22/2019 5:56am
Light rain, Mist, Overcast
Light rain, Mist, Overcast
 Wind from ENE
Wind: ENE 23 mph , 37 km/h, Gust: 29 mph , 46 km/h
Temperature: 39°F , 4°C
Wind Chill: 28°F , -2°C
Dew Point: 37°F , 3°C
Humidity: 93%
Barometer: 29.43 inHg , 996.6 hPa
Summary: Light rain, Mist
Clouds: Overcast
Visibility: 5 miles , 8 km
Cloud details: Mostly cloudy 500 ft
Overcast 2000 ft
2019/03/22 09:56 KPVC 220956Z AUTO 06020G25KT 5SM -RA BR BKN005 OVC020 04/03 A2943 RMK AO2 PK WND 06026/0941 CIG 004V009 PRESFR SLP964 T00390033 PNO $
KBED - Bedford, Massachusetts, USA
Distance from station: NNW 44mi, 72km
Updated: 03/22/2019 5:56am
Light rain, Mist, Overcast
Light rain, Mist, Overcast
 Wind from NNE
Wind: NNE 20 mph , 31 km/h
Temperature: 39°F , 4°C
Wind Chill: 29°F , -2°C
Dew Point: 37°F , 3°C
Humidity: 93%
Barometer: 29.47 inHg , 998 hPa
Summary: Light rain, Mist
Clouds: Overcast
Visibility: 5 miles , 8 km
Cloud details: Overcast 1000 ft
2019/03/22 09:56 KBED 220956Z AUTO 03017KT 5SM -RA BR OVC010 04/03 A2947 RMK AO2 SLP992 P0018 T00390028
 
KBVY - Beverly, Massachusetts, USA
Distance from station: 0 48mi, 77km
Updated: 03/22/2019 5:53am
Rain, Mist, Overcast
Rain, Mist, Overcast
 Wind from NE
Wind: NE 16 mph , 26 km/h, Gust: 26 mph , 43 km/h
Temperature: 39°F , 4°C
Wind Chill: 30°F , -1°C
Dew Point: 36°F , 2°C
Humidity: 87%
Barometer: 29.50 inHg , 999 hPa
Summary: Rain, Mist
Clouds: Overcast
Visibility: 4 miles , 6 km
Cloud details: Mostly cloudy 400 ft
Overcast 1000 ft
2019/03/22 09:53 KBVY 220953Z AUTO 04014G23KT 4SM RA BR BKN004 OVC010 04/02 A2950 RMK AO2 PRESFR SLP986 P0016 T00390017
KCQX - Chatham, Massachusetts, USA
Distance from station: ESE 49mi, 80km
Updated: 03/22/2019 5:52am
Rain, Mist, Overcast
Rain, Mist, Overcast
 Wind from NE
Wind: NE 17 mph , 28 km/h, Gust: 28 mph , 44 km/h
Temperature: 39°F , 4°C
Wind Chill: 30°F , -1°C
Dew Point: 39°F , 4°C
Humidity: 100%
Barometer: 29.36 inHg , 994.2 hPa
Summary: Rain, Mist
Clouds: Overcast
Visibility: 3 miles , 5 km
Cloud details: Overcast 400 ft
2019/03/22 09:52 KCQX 220952Z AUTO 05015G24KT 3SM RA BR OVC004 04/04 A2936 RMK AO2 SLP944 P0021 T00440039